Flight Track Log - Related Links

Times and Time Zones

All times are in EDT time to prevent confusion due to time zone crossing. See the SWA2166 flight status page for this flight to view local times or setup timezone preferences in your user account.

Time Position Orientation Groundspeed Altitude Reporting Facility
EDT Latitude Longitude Course Direction KTS km/h feet Rate Location/Type
Mon 07:04:29 PM 33.5444 -86.7928 242° Southwest 164 304 2.300  Level Atlanta Center
Mon 07:05:30 PM 33.5097 -86.8467 232° Southwest 209 388 5.200 2.917 Climbing Atlanta Center
Mon 07:06:18 PM 33.4753 -86.8928 228° Southwest 271 502 7.600 3.056 Climbing Atlanta Center
Mon 07:07:18 PM 33.4258 -86.9533 226° Southwest 269 499 10.700 3.250 Climbing Atlanta Center
Mon 07:08:18 PM 33.3656 -87.0311 227° Southwest 296 549 14.100 3.550 Climbing Atlanta Center
Mon 07:09:18 PM 33.3069 -87.1183 231° Southwest 324 600 17.800 3.500 Climbing Atlanta Center
Mon 07:10:18 PM 33.2419 -87.2106 230° Southwest 351 650 21.100 2.600 Climbing Atlanta Center
Mon 07:11:18 PM 33.1747 -87.3097 231° Southwest 375 695 23.000 2.050 Climbing Atlanta Center
Mon 07:12:18 PM 33.1053 -87.4089 230° Southwest 388 719 25.200 2.500 Climbing Atlanta Center
Mon 07:13:18 PM 33.0336 -87.5128 231° Southwest 394 729 28.000 2.500 Climbing Atlanta Center
Mon 07:14:18 PM 32.9594 -87.6261 232° Southwest 399 739 30.200 2.284 Climbing Atlanta Center
Mon 07:15:32 PM 32.8700 -87.7478 229° Southwest 421 779 33.100 2.373 Climbing Memphis Center
Mon 07:16:32 PM 32.7969 -87.8489 229° Southwest 421 779 35.500 2.350 Climbing Memphis Center
Mon 07:17:32 PM 32.7325 -87.9717 238° Southwest 407 753 37.800 1.950 Climbing Memphis Center
Mon 07:18:32 PM 32.6972 -88.0911 251° West 385 713 39.400 1.100 Climbing Memphis Center
Mon 07:19:32 PM 32.6617 -88.2106 251° West 391 724 40.000 300 Climbing Memphis Center
Mon 07:20:32 PM 32.6261 -88.3322 251° West 391 724 40.000  Level Memphis Center
Mon 07:21:32 PM 32.5864 -88.4514 248° West 391 724 40.000  Level Memphis Center
Mon 07:22:32 PM 32.5506 -88.5681 250° West 391 724 40.000  Level Memphis Center
Mon 07:23:32 PM 32.5144 -88.6869 250° West 391 724 40.000  Level Memphis Center
Mon 07:24:32 PM 32.4764 -88.8058 249° West 391 724 40.000  Level Memphis Center
Mon 07:25:32 PM 32.4381 -88.9247 249° West 391 724 40.000  Level Memphis Center
Mon 07:26:32 PM 32.4019 -89.0433 250° West 391 724 40.000  Level Memphis Center
Mon 07:27:32 PM 32.3656 -89.1669 251° West 391 724 40.000  Level Memphis Center
Mon 07:28:32 PM 32.3269 -89.2831 249° West 391 724 40.000  Level Memphis Center
Mon 07:29:32 PM 32.2883 -89.4064 250° West 391 724 40.000  Level Memphis Center
Mon 07:30:32 PM 32.2517 -89.5247 250° West 391 724 40.000  Level Memphis Center
Mon 07:31:32 PM 32.2128 -89.6453 249° West 391 724 40.000  Level Memphis Center
Mon 07:32:32 PM 32.1736 -89.7633 249° West 391 724 40.000  Level Memphis Center
Mon 07:33:32 PM 32.1344 -89.8839 249° West 391 724 40.000  Level Memphis Center
Mon 07:34:32 PM 32.0953 -90.0042 249° West 391 724 40.000  Level Memphis Center
Mon 07:35:32 PM 32.0558 -90.1219 248° West 391 724 40.000  Level Memphis Center
Mon 07:36:32 PM 32.0183 -90.2422 250° West 391 724 40.000  Level Memphis Center
Mon 07:37:32 PM 31.9789 -90.3647 249° West 391 724 40.000  Level Memphis Center
Mon 07:38:32 PM 31.9411 -90.4797 249° West 391 724 40.000  Level Memphis Center
Mon 07:39:32 PM 31.9014 -90.5997 249° West 391 724 40.000  Level Memphis Center
Mon 07:40:47 PM 31.8544 -90.7419 249° West 397 735 40.000  Level Houston Center
Mon 07:41:49 PM 31.8197 -90.8583 251° West 386 715 40.000  Level Houston Center
Mon 07:42:51 PM 31.7756 -90.9797 247° West 396 734 40.000  Level Houston Center
Mon 07:43:53 PM 31.7344 -91.0997 248° West 399 739 40.000  Level Houston Center
Mon 07:44:55 PM 31.6906 -91.2383 250° West 388 719 40.000  Level Houston Center
Mon 07:45:57 PM 31.6511 -91.3558 249° West 388 719 40.000  Level Houston Center
Mon 07:46:59 PM 31.6106 -91.4728 248° West 387 716 40.000  Level Houston Center
Mon 07:48:01 PM 31.5708 -91.5892 248° West 386 715 40.000  Level Houston Center
Mon 07:49:02 PM 31.5297 -91.7044 247° West 386 715 40.000  Level Houston Center
Mon 07:50:04 PM 31.4881 -91.8211 247° West 387 716 40.000  Level Houston Center
Mon 07:51:06 PM 31.4367 -91.9625 247° West 391 724 40.000  Level Houston Center
Mon 07:52:08 PM 31.3947 -92.0778 247° West 392 726 40.000  Level Houston Center
Mon 07:53:10 PM 31.3531 -92.1964 248° West 395 732 40.000  Level Houston Center
Mon 07:54:12 PM 31.3117 -92.3131 247° West 392 726 40.000  Level Houston Center
Mon 07:55:13 PM 31.2686 -92.4294 247° West 393 727 40.000  Level Houston Center
Mon 07:56:15 PM 31.2267 -92.5450 247° West 390 723 40.000  Level Houston Center
Mon 07:57:17 PM 31.1861 -92.6608 248° West 388 719 40.000  Level Houston Center
Mon 07:58:19 PM 31.1367 -92.7975 247° West 382 708 40.000  Level Houston Center
Mon 07:59:21 PM 31.0969 -92.9069 247° West 369 684 40.000 -290 Level Houston Center
Mon 08:00:23 PM 31.0586 -93.0125 247° West 358 663 39.400 -732 Descending Houston Center
Mon 08:01:24 PM 31.0183 -93.1192 246° West 361 668 38.500 -927 Descending Houston Center
Mon 08:02:26 PM 30.9794 -93.2281 247° West 366 678 37.500 -968 Descending Houston Center
Mon 08:03:28 PM 30.9394 -93.3367 247° West 367 679 36.500 -1.056 Descending Houston Center
Mon 08:04:31 PM 30.9075 -93.4683 254° West 353 653 35.300 -1.065 Descending Houston Center
Mon 08:05:32 PM 30.9142 -93.5819 274° West 353 653 34.300 -976 Descending Houston Center
Mon 08:06:34 PM 30.9219 -93.6950 275° West 353 653 33.300 -1.065 Descending Houston Center
Mon 08:07:36 PM 30.9006 -93.7992 257° West 349 647 32.100 -1.366 Descending Houston Center
Mon 08:08:37 PM 30.8506 -93.8883 237° Southwest 335 621 30.500 -1.756 Descending Houston Center
Mon 08:09:39 PM 30.7914 -93.9944 237° Southwest 329 610 28.500 -1.742 Descending Houston Center
Mon 08:10:41 PM 30.7447 -94.0781 237° Southwest 316 586 26.900 -1.500 Descending Houston Center
Mon 08:11:43 PM 30.6986 -94.1592 237° Southwest 306 566 25.400 -1.403 Descending Houston Center
Mon 08:12:45 PM 30.6539 -94.2378 237° Southwest 298 552 24.000 -1.317 Descending Houston Center
Mon 08:13:46 PM 30.6097 -94.3156 237° Southwest 293 542 22.700 -1.440 Descending Houston Center
Mon 08:14:25 PM 30.5756 -94.3756 237° Southwest 282 523 21.600 -1.355 Descending Houston Center
Mon 08:14:48 PM 30.5664 -94.3925 238° Southwest 288 533 21.300 -1.535 Descending Houston Center
Mon 08:15:08 PM 30.5433 -94.4331 237° Southwest 289 536 20.500 -1.742 Descending Houston Center
Mon 08:15:50 PM 30.5128 -94.4858 236° Southwest 290 538 19.500 -1.377 Descending Houston Center
Mon 08:16:09 PM 30.4986 -94.5119 238° Southwest 295 546 19.100 -1.258 Descending Houston Center
Mon 08:16:52 PM 30.4722 -94.5531 233° Southwest 291 539 18.200 -1.672 Descending Houston Center
Mon 08:17:10 PM 30.4514 -94.5883 236° Southwest 294 544 17.400 -1.645 Descending Houston Center
Mon 08:17:54 PM 30.4167 -94.6408 233° Southwest 289 536 16.500 -1.377 Descending Houston Center
Mon 08:18:11 PM 30.4000 -94.6653 232° Southwest 284 526 16.000 -1.548 Descending Houston Center
Mon 08:18:56 PM 30.3692 -94.7131 233° Southwest 283 525 14.900 -1.612 Descending Houston Center
Mon 08:19:18 PM 30.3467 -94.7447 231° Southwest 283 525 14.200 -1.548 Descending Houston Center
Mon 08:19:58 PM 30.3219 -94.7872 236° Southwest 286 529 13.300 -1.180 Descending Houston Center
Mon 08:20:19 PM 30.3014 -94.8208 235° Southwest 285 528 13.000 -774 Descending Houston Center
Mon 08:21:00 PM 30.2758 -94.8567 230° Southwest 275 509 12.500 -885 Descending Houston Center
Mon 08:21:20 PM 30.2536 -94.8922 234° Southwest 267 494 12.100 -885 Descending Houston Center
Mon 08:22:01 PM 30.2314 -94.9267 233° Southwest 271 502 11.600 -984 Descending Houston Center
Mon 08:22:21 PM 30.2075 -94.9608 231° Southwest 273 505 11.100 -581 Descending Houston Center
Mon 08:23:03 PM 30.1858 -94.9967 235° Southwest 273 505 11.000 -197 Descending Houston Center
Mon 08:23:22 PM 30.1617 -95.0317 231° Southwest 268 496 10.900 -774 Descending Houston Center
Mon 08:24:05 PM 30.1308 -95.0756 231° Southwest 266 492 10.200 -871 Descending Houston Center
Mon 08:24:24 PM 30.1058 -95.0847 198° South 257 476 10.000 -194 Descending Houston Center
Mon 08:25:07 PM 30.0619 -95.1022 199° South 260 481 10.000  Level Houston Center
Mon 08:25:31 PM 30.0308 -95.1156 200° South 254 470 10.000 -97 Level Houston Center
Mon 08:26:09 PM 29.9956 -95.1317 202° Southwest 257 476 9.900 -840 Descending Houston Center
Mon 08:27:11 PM 29.9286 -95.1603 200° South 258 478 8.600 -1.462 Descending Houston Center
Mon 08:27:27 PM 29.9019 -95.1725 202° Southwest 257 476 8.000 -701 Descending Houston Center
Mon 08:28:28 PM 29.8411 -95.1967 199° South 207 383 7.700 -505 Descending Houston Center
Mon 08:29:14 PM 29.8106 -95.2106 202° Southwest 213 394 7.100 -944 Descending Houston Center
Mon 08:30:16 PM 29.7475 -95.2378 201° Southwest 205 380 6.000 -857 Descending Houston Center
Mon 08:30:31 PM 29.7319 -95.2436 198° South 209 388 6.000  Level Houston Center
Mon 08:31:18 PM 29.6933 -95.2628 203° Southwest 210 389 6.000 -275 Level Houston Center
Mon 08:32:20 PM 29.6486 -95.3078 221° Southwest 216 401 5.500 -823 Descending Houston Center
Mon 08:33:22 PM 29.6333 -95.3703 254° West 240 444 4.300 -1.125 Descending Houston Center
Mon 08:33:40 PM 29.6456 -95.4008 295° West 247 457 4.000 -984 Descending Houston Center
Mon 08:34:23 PM 29.6622 -95.4397 296° West 241 446 3.300 -984 Descending Houston Center
Mon 08:34:41 PM 29.6850 -95.4636 318° Northwest 245 454 3.000 -774 Descending Houston Center
Mon 08:35:25 PM 29.7211 -95.4986 320° Northwest 236 438 2.500 -689 Descending Houston Center
Mon 08:35:42 PM 29.7386 -95.5003 355° North 217 402 2.300 -484 Descending Houston Center
Mon 08:36:27 PM 29.7644 -95.4697 46° Northeast 212 393 2.000 -290 Descending Houston Center
Mon 08:36:44 PM 29.7636 -95.4517 93° East 163 303 2.000  Level Houston Center
Mon 08:37:29 PM 29.7589 -95.4172 99° East 182 336 2.000  Level Houston Center
Mon 08:37:45 PM 29.7489 -95.4053 134° Southeast 155 286 2.000  Level Houston Center
Mon 08:38:31 PM 29.7297 -95.3792 130° Southeast 169 312 2.000  Level Houston Center
Mon 08:38:46 PM 29.7203 -95.3678 134° Southeast 155 286 2.000 -484 Level Houston Center
Mon 08:39:33 PM 29.7003 -95.3450 135° Southeast 158 293 1.500 -661 Descending Houston Center
Mon 08:40:35 PM 29.6756 -95.3153 134° Southeast 144 267 800 -677 Descending Houston Center
Mon 08:41:37 PM 29.6517 -95.2875 135° Southeast 132 245 100 -677 Descending Houston Center

Login

Don't have an account? Register now (free) for customized features, flight alerts, and more!